Time;durP1;ratioP1;P1;durP2;ratioP2;P2;SDS_P1;SDS_P2;PMS_P1;PMS_P2;Temp;Humidity;BMP_temperature;BMP_pressure;BME280_temperature;BME280_humidity;BME280_pressure;Samples;Min_cycle;Max_cycle;Signal;HPM_P1;HPM_P2
2022/07/06 00:01:30;;;;;;;2.13;1.10;;;13.90;99.90;;;;;;5071632;28;20036;-50
2022/07/06 00:03:56;;;;;;;2.00;1.02;;;13.90;99.90;;;;;;5086077;28;20032;-50
2022/07/06 00:06:22;;;;;;;3.95;1.10;;;13.90;99.90;;;;;;5072081;28;20109;-49
2022/07/06 00:08:48;;;;;;;;;;;14.00;99.90;;;;;;5085180;28;20069;-52
2022/07/06 00:11:13;;;;;;;4.03;1.27;;;14.00;99.90;;;;;;5077970;28;20345;-51
2022/07/06 00:13:39;;;;;;;3.03;1.27;;;13.90;99.90;;;;;;5074032;28;20032;-51
2022/07/06 00:16:05;;;;;;;5.85;1.02;;;14.00;99.90;;;;;;5085177;28;20085;-49
2022/07/06 00:18:30;;;;;;;2.10;0.90;;;13.90;99.90;;;;;;5088428;28;20043;-52
2022/07/06 00:20:56;;;;;;;3.83;1.55;;;13.90;99.90;;;;;;5074068;28;20111;-51
2022/07/06 00:23:22;;;;;;;6.47;1.15;;;13.90;99.90;;;;;;5078625;28;20044;-52
2022/07/06 00:25:48;;;;;;;2.75;1.30;;;13.90;99.90;;;;;;5086579;28;20044;-50
2022/07/06 00:28:14;;;;;;;14.30;1.00;;;13.90;99.90;;;;;;5087620;28;20062;-50
2022/07/06 00:30:39;;;;;;;5.47;0.70;;;13.90;99.90;;;;;;5077858;28;20045;-52
2022/07/06 00:33:05;;;;;;;3.22;1.38;;;13.90;99.90;;;;;;5071228;28;20057;-54
2022/07/06 00:35:31;;;;;;;4.32;0.90;;;13.80;99.90;;;;;;5083424;28;20036;-52
2022/07/06 00:37:56;;;;;;;4.13;1.20;;;13.80;99.90;;;;;;5081906;28;20135;-51
2022/07/06 00:40:22;;;;;;;1.35;1.00;;;13.70;99.90;;;;;;5075369;28;20036;-53
2022/07/06 00:42:48;;;;;;;5.40;1.25;;;13.70;99.90;;;;;;5070358;28;20504;-49
2022/07/06 00:45:15;;;;;;;2.85;1.23;;;13.60;99.90;;;;;;5082050;28;20041;-52
2022/07/06 00:47:41;;;;;;;5.43;1.30;;;13.60;99.90;;;;;;5082526;28;20515;-49
2022/07/06 00:50:15;;;;;;;1.85;1.00;;;13.60;99.90;;;;;;5078227;28;20027;-52
2022/07/06 00:52:55;;;;;;;7.55;1.02;;;13.50;99.90;;;;;;5086057;28;20037;-47
2022/07/06 00:55:24;;;;;;;2.05;0.57;;;13.60;99.90;;;;;;5080846;28;20028;-51
2022/07/06 00:57:50;;;;;;;2.72;0.93;;;13.50;99.90;;;;;;5079925;28;20036;-53
2022/07/06 01:00:20;;;;;;;4.05;1.08;;;13.50;99.90;;;;;;5073541;28;20028;-50
2022/07/06 01:02:46;;;;;;;5.90;1.33;;;13.50;99.90;;;;;;5086558;28;20076;-52
2022/07/06 01:05:13;;;;;;;3.97;1.35;;;13.60;99.90;;;;;;5081048;28;20035;-50
2022/07/06 01:07:41;;;;;;;1.48;0.95;;;13.60;99.90;;;;;;5084410;28;20032;-52
2022/07/06 01:10:08;;;;;;;5.93;1.58;;;13.60;99.90;;;;;;5090519;28;20515;-52
2022/07/06 01:12:38;;;;;;;4.50;1.58;;;13.60;99.90;;;;;;5073133;28;20498;-48
2022/07/06 01:15:07;;;;;;;4.43;1.30;;;13.60;99.90;;;;;;5076137;28;20043;-51
2022/07/06 01:17:33;;;;;;;4.18;1.13;;;13.70;99.90;;;;;;5077835;28;20079;-51
2022/07/06 01:20:12;;;;;;;6.70;2.22;;;13.70;99.90;;;;;;5089370;28;20032;-51
2022/07/06 01:22:38;;;;;;;2.83;0.98;;;13.80;99.90;;;;;;5075231;28;20044;-50
2022/07/06 01:25:06;;;;;;;3.90;1.20;;;13.80;99.90;;;;;;5087815;28;20116;-48
2022/07/06 01:27:34;;;;;;;3.45;1.00;;;13.80;99.90;;;;;;5077750;28;20639;-52
2022/07/06 01:30:00;;;;;;;3.63;1.50;;;13.80;99.90;;;;;;5089380;28;20047;-48
2022/07/06 01:32:25;;;;;;;5.40;1.08;;;13.80;99.90;;;;;;5082009;28;20036;-53
2022/07/06 01:34:51;;;;;;;1.90;0.85;;;13.80;99.90;;;;;;5072742;28;20071;-49
2022/07/06 01:37:17;;;;;;;3.10;1.20;;;13.80;99.90;;;;;;5078811;28;20045;-53
2022/07/06 01:39:42;;;;;;;2.30;1.17;;;13.90;99.90;;;;;;5075320;28;20297;-50
2022/07/06 01:42:08;;;;;;;2.80;0.83;;;13.80;99.90;;;;;;5085321;28;20566;-52
2022/07/06 01:44:33;;;;;;;4.05;1.05;;;13.90;99.90;;;;;;5079511;28;20305;-53
2022/07/06 01:46:59;;;;;;;3.58;1.05;;;13.90;99.90;;;;;;5084431;28;20074;-52
2022/07/06 01:49:24;;;;;;;5.97;1.08;;;13.90;99.90;;;;;;5085244;28;20075;-52
2022/07/06 01:51:50;;;;;;;2.90;0.80;;;13.90;99.90;;;;;;5081393;28;20436;-49
2022/07/06 01:54:15;;;;;;;7.53;1.25;;;13.90;99.90;;;;;;5084682;28;20037;-53
2022/07/06 01:56:41;;;;;;;2.25;0.90;;;13.90;99.90;;;;;;5082581;28;20047;-51
2022/07/06 01:59:06;;;;;;;5.00;1.00;;;13.90;99.90;;;;;;5074122;28;20051;-52
2022/07/06 02:01:32;;;;;;;2.80;1.27;;;13.90;99.90;;;;;;5071729;28;20517;-52
2022/07/06 02:03:57;;;;;;;5.53;1.65;;;13.90;99.90;;;;;;5089679;28;20043;-51
2022/07/06 02:06:23;;;;;;;3.08;1.13;;;13.90;99.90;;;;;;5082434;28;20047;-47
2022/07/06 02:08:51;;;;;;;4.55;1.48;;;13.90;99.90;;;;;;5086704;28;20039;-53
2022/07/06 02:11:17;;;;;;;4.95;1.77;;;14.00;99.90;;;;;;5072757;28;20080;-50
2022/07/06 02:13:42;;;;;;;4.72;1.60;;;13.90;99.90;;;;;;5087434;28;20079;-51
2022/07/06 02:16:08;;;;;;;3.83;1.33;;;13.90;99.90;;;;;;5067955;28;20093;-51
2022/07/06 02:18:33;;;;;;;2.63;1.17;;;13.90;99.90;;;;;;5087549;28;20040;-51
2022/07/06 02:20:59;;;;;;;1.38;1.00;;;13.90;99.90;;;;;;5089341;28;20028;-50
2022/07/06 02:23:25;;;;;;;3.75;1.08;;;13.90;99.90;;;;;;5088160;28;20043;-49
2022/07/06 02:25:51;;;;;;;;;;;14.00;99.90;;;;;;5089505;28;20036;-51
2022/07/06 02:28:17;;;;;;;5.68;0.90;;;14.00;99.90;;;;;;5082201;28;20041;-52
2022/07/06 02:30:42;;;;;;;3.05;1.30;;;14.00;99.90;;;;;;5086480;28;20135;-51
2022/07/06 02:33:08;;;;;;;3.90;1.33;;;14.00;99.90;;;;;;5079398;28;20120;-52
2022/07/06 02:35:33;;;;;;;4.03;1.17;;;14.00;99.90;;;;;;5071757;28;20032;-51
2022/07/06 02:37:59;;;;;;;3.13;0.93;;;14.00;99.90;;;;;;5078857;28;20286;-48
2022/07/06 02:40:25;;;;;;;2.33;1.63;;;14.00;99.90;;;;;;5083416;28;20158;-49
2022/07/06 02:42:51;;;;;;;3.92;0.95;;;14.00;99.90;;;;;;5078078;28;20028;-51
2022/07/06 02:45:16;;;;;;;2.42;0.98;;;14.00;99.90;;;;;;5078615;28;20057;-48
2022/07/06 02:47:42;;;;;;;3.28;1.20;;;14.00;99.90;;;;;;5070593;28;20059;-51
2022/07/06 02:50:07;;;;;;;2.42;0.98;;;14.00;99.90;;;;;;5082069;28;20089;-50
2022/07/06 02:52:33;;;;;;;4.22;1.38;;;14.00;99.90;;;;;;5089449;28;20090;-52
2022/07/06 02:54:58;;;;;;;3.83;1.17;;;14.00;99.90;;;;;;5075012;28;20036;-48
2022/07/06 02:57:24;;;;;;;2.75;0.98;;;14.00;99.90;;;;;;5084884;28;20044;-49
2022/07/06 02:59:50;;;;;;;4.45;1.35;;;13.90;99.90;;;;;;5080579;28;20168;-50
2022/07/06 03:02:18;;;;;;;1.42;1.05;;;13.90;99.90;;;;;;5078254;28;20045;-47
2022/07/06 03:04:44;;;;;;;6.78;1.25;;;13.90;99.90;;;;;;5084865;28;20399;-47
2022/07/06 03:07:10;;;;;;;4.00;0.90;;;13.80;99.90;;;;;;5077193;28;20032;-51
2022/07/06 03:09:35;;;;;;;5.45;1.05;;;13.90;99.90;;;;;;5080474;28;20512;-52
2022/07/06 03:12:01;;;;;;;5.18;1.17;;;13.90;99.90;;;;;;5085436;28;20127;-50
2022/07/06 03:14:27;;;;;;;3.05;1.25;;;13.90;99.90;;;;;;5084594;28;20035;-49
2022/07/06 03:16:53;;;;;;;3.80;0.98;;;14.00;99.90;;;;;;5075659;28;20025;-48
2022/07/06 03:19:18;;;;;;;3.92;1.00;;;14.00;99.90;;;;;;5076504;28;20032;-52
2022/07/06 03:21:44;;;;;;;2.97;1.17;;;14.00;99.90;;;;;;5088525;28;20047;-51
2022/07/06 03:24:09;;;;;;;5.05;1.35;;;14.00;99.90;;;;;;5077703;28;20393;-52
2022/07/06 03:26:35;;;;;;;2.67;1.10;;;14.00;99.90;;;;;;5069860;28;20052;-46
2022/07/06 03:29:01;;;;;;;4.82;1.30;;;14.00;99.90;;;;;;5081598;28;20110;-46
2022/07/06 03:31:26;;;;;;;5.68;1.42;;;14.00;99.90;;;;;;5085712;28;20126;-54
2022/07/06 03:33:52;;;;;;;3.28;1.85;;;14.00;99.90;;;;;;5085144;28;20039;-49
2022/07/06 03:36:18;;;;;;;4.35;1.42;;;14.00;99.90;;;;;;5087550;28;20040;-53
2022/07/06 03:38:43;;;;;;;4.20;1.45;;;14.00;99.90;;;;;;5074575;28;20123;-47
2022/07/06 03:41:09;;;;;;;2.35;2.05;;;14.00;99.90;;;;;;5077057;28;20557;-50
2022/07/06 03:43:35;;;;;;;3.78;1.27;;;14.00;99.90;;;;;;5078725;28;20052;-50
2022/07/06 03:46:00;;;;;;;4.25;1.30;;;14.10;99.90;;;;;;5070631;28;20124;-53
2022/07/06 03:48:26;;;;;;;4.72;1.63;;;14.00;99.90;;;;;;5074269;28;20064;-50
2022/07/06 03:50:52;;;;;;;3.45;1.35;;;14.10;99.90;;;;;;5081901;28;20162;-52
2022/07/06 03:53:17;;;;;;;4.80;1.92;;;14.10;99.90;;;;;;5074637;28;20035;-46
2022/07/06 03:55:43;;;;;;;5.85;2.15;;;14.10;99.90;;;;;;5078639;28;20090;-51
2022/07/06 03:58:09;;;;;;;2.25;1.45;;;14.10;99.90;;;;;;5084141;28;20091;-50
2022/07/06 04:00:34;;;;;;;10.43;1.70;;;14.10;99.90;;;;;;5078666;28;20121;-52
2022/07/06 04:03:00;;;;;;;3.35;1.80;;;14.10;99.90;;;;;;5069246;28;20501;-51
2022/07/06 04:05:26;;;;;;;9.93;1.80;;;14.10;99.90;;;;;;5075194;28;20394;-51
2022/07/06 04:07:52;;;;;;;5.85;1.85;;;14.20;99.90;;;;;;5088578;28;20119;-53
2022/07/06 04:10:17;;;;;;;3.50;1.45;;;14.10;99.90;;;;;;5076556;28;20044;-50
2022/07/06 04:12:44;;;;;;;1.42;1.15;;;14.20;99.90;;;;;;5088831;28;20078;-55
2022/07/06 04:15:11;;;;;;;6.10;1.77;;;14.20;99.90;;;;;;5082196;28;20076;-51
2022/07/06 04:17:52;;;;;;;3.28;1.40;;;14.20;99.90;;;;;;5084111;28;20043;-51
2022/07/06 04:20:18;;;;;;;5.68;1.92;;;14.20;99.90;;;;;;5085143;28;20032;-47
2022/07/06 04:22:43;;;;;;;2.92;1.30;;;14.20;99.90;;;;;;5078546;28;20086;-53
2022/07/06 04:25:09;;;;;;;2.42;1.92;;;14.20;99.90;;;;;;5069885;28;20055;-51
2022/07/06 04:27:35;;;;;;;7.70;1.55;;;14.20;99.90;;;;;;5075213;28;20068;-46
2022/07/06 04:30:01;;;;;;;3.78;1.10;;;14.20;99.90;;;;;;5088221;28;20035;-51
2022/07/06 04:32:27;;;;;;;4.75;1.58;;;14.20;99.90;;;;;;5078101;28;20040;-52
2022/07/06 04:34:52;;;;;;;5.18;1.73;;;14.20;99.90;;;;;;5076551;28;20089;-54
2022/07/06 04:37:18;;;;;;;1.45;1.15;;;14.20;99.90;;;;;;5074406;28;20036;-49
2022/07/06 04:39:43;;;;;;;3.72;1.58;;;14.30;99.90;;;;;;5077197;28;20032;-51
2022/07/06 04:42:09;;;;;;;6.13;1.83;;;14.20;99.90;;;;;;5073310;28;20036;-52
2022/07/06 04:44:34;;;;;;;3.92;1.52;;;14.30;99.90;;;;;;5078610;28;20413;-52
2022/07/06 04:47:00;;;;;;;8.52;2.35;;;14.30;99.90;;;;;;5085382;28;20036;-51
2022/07/06 04:49:25;;;;;;;4.38;1.58;;;14.30;99.90;;;;;;5084062;28;20328;-47
2022/07/06 04:51:51;;;;;;;3.13;1.50;;;14.30;99.90;;;;;;5069668;28;20032;-51
2022/07/06 04:54:16;;;;;;;6.13;2.03;;;14.30;99.90;;;;;;5079121;28;20032;-52
2022/07/06 04:56:42;;;;;;;6.03;1.60;;;14.40;99.90;;;;;;5067285;28;20043;-50
2022/07/06 04:59:08;;;;;;;3.97;1.88;;;14.40;99.90;;;;;;5073048;28;20314;-51
2022/07/06 05:01:33;;;;;;;7.18;1.50;;;14.40;99.90;;;;;;5085418;28;20032;-47
2022/07/06 05:03:59;;;;;;;1.73;1.00;;;14.40;99.90;;;;;;5075375;28;20086;-53
2022/07/06 05:06:25;;;;;;;3.65;1.17;;;14.40;99.90;;;;;;5088141;28;20044;-49
2022/07/06 05:08:50;;;;;;;2.00;1.27;;;14.40;99.90;;;;;;5075590;28;20567;-52
2022/07/06 05:11:16;;;;;;;10.85;1.48;;;14.40;99.90;;;;;;5082402;28;20068;-50
2022/07/06 05:13:41;;;;;;;3.47;1.23;;;14.40;99.90;;;;;;5085503;28;20061;-48
2022/07/06 05:16:07;;;;;;;3.10;1.38;;;14.50;99.90;;;;;;5076828;28;20036;-47
2022/07/06 05:18:33;;;;;;;5.93;1.58;;;14.50;99.90;;;;;;5077996;28;20040;-51
2022/07/06 05:20:58;;;;;;;3.80;1.15;;;14.50;99.90;;;;;;5081358;28;20040;-50
2022/07/06 05:23:24;;;;;;;2.30;0.90;;;14.60;99.90;;;;;;5069527;28;20036;-51
2022/07/06 05:25:49;;;;;;;3.97;0.95;;;14.70;99.90;;;;;;5083792;28;20036;-49
2022/07/06 05:28:15;;;;;;;5.27;0.97;;;14.70;99.90;;;;;;5071804;28;20059;-49
2022/07/06 05:30:40;;;;;;;1.92;1.23;;;14.70;99.90;;;;;;5082029;28;20633;-50
2022/07/06 05:33:06;;;;;;;3.50;0.73;;;14.70;99.90;;;;;;5078512;28;20040;-49
2022/07/06 05:35:32;;;;;;;6.85;1.52;;;14.80;99.90;;;;;;5077899;28;20124;-50
2022/07/06 05:37:57;;;;;;;3.47;0.80;;;14.80;99.90;;;;;;5072645;28;20068;-46
2022/07/06 05:40:23;;;;;;;4.53;1.35;;;14.80;99.90;;;;;;5086657;28;20293;-50
2022/07/06 05:42:48;;;;;;;5.07;1.27;;;14.90;99.90;;;;;;5085501;28;20047;-51
2022/07/06 05:45:14;;;;;;;2.40;0.80;;;14.90;99.90;;;;;;5075510;28;20044;-53
2022/07/06 05:50:25;;;;;;;1.92;1.00;;;15.00;99.90;;;;;;5048667;28;20405;-50
2022/07/06 05:53:03;;;;;;;3.33;0.80;;;15.00;99.90;;;;;;5075932;28;20052;-56
2022/07/06 05:55:29;;;;;;;3.55;0.68;;;15.10;99.90;;;;;;5076554;28;20433;-50
2022/07/06 05:57:55;;;;;;;4.28;0.82;;;15.20;99.90;;;;;;5075577;28;20063;-49
2022/07/06 06:00:25;;;;;;;2.78;0.80;;;15.20;99.90;;;;;;5072379;28;20043;-53
2022/07/06 06:02:51;;;;;;;4.55;1.02;;;15.30;99.90;;;;;;5071127;28;20032;-49
2022/07/06 06:05:18;;;;;;;2.67;0.40;;;15.40;99.90;;;;;;5072144;28;20032;-51
2022/07/06 06:07:43;;;;;;;;;;;15.40;99.90;;;;;;5082347;28;20047;-53
2022/07/06 06:10:11;;;;;;;4.80;0.52;;;15.40;99.90;;;;;;5079993;28;19917;-52
2022/07/06 06:12:38;;;;;;;4.15;1.00;;;15.50;99.90;;;;;;5070603;28;20486;-52
2022/07/06 06:15:04;;;;;;;;;;;15.50;99.90;;;;;;5086258;28;20047;-52
2022/07/06 06:17:30;;;;;;;3.80;0.90;;;15.50;99.90;;;;;;5074212;28;19924;-48
2022/07/06 06:19:56;;;;;;;;;;;15.60;99.90;;;;;;5072212;28;20194;-50
2022/07/06 06:22:22;;;;;;;2.20;0.30;;;15.60;99.90;;;;;;5071746;28;20389;-50
2022/07/06 06:24:47;;;;;;;7.55;0.57;;;15.70;99.90;;;;;;5070584;28;20099;-50
2022/07/06 06:27:13;;;;;;;5.60;0.40;;;15.90;99.90;;;;;;5071419;28;20498;-52
2022/07/06 06:29:38;;;;;;;2.13;0.20;;;15.90;99.90;;;;;;5082438;28;20496;-47
2022/07/06 06:32:05;;;;;;;3.20;0.40;;;16.00;99.90;;;;;;5091791;28;20488;-50
2022/07/06 06:34:31;;;;;;;4.78;0.25;;;16.00;99.90;;;;;;5090739;28;20086;-52
2022/07/06 06:36:57;;;;;;;2.65;0.75;;;16.10;99.90;;;;;;5091436;28;20086;-47
2022/07/06 06:39:23;;;;;;;1.65;0.50;;;16.10;99.90;;;;;;5091651;28;20044;-50
2022/07/06 06:41:48;;;;;;;2.28;0.73;;;16.20;99.90;;;;;;5083012;28;20276;-51
2022/07/06 06:44:14;;;;;;;3.45;0.30;;;16.20;99.90;;;;;;5090297;28;20120;-51
2022/07/06 06:46:40;;;;;;;1.85;0.35;;;16.20;99.90;;;;;;5089108;28;20048;-51
2022/07/06 06:49:06;;;;;;;4.95;0.43;;;16.20;99.90;;;;;;5085529;28;20135;-48
2022/07/06 06:51:32;;;;;;;8.57;0.93;;;16.20;99.90;;;;;;5079686;28;20118;-49
2022/07/06 06:53:58;;;;;;;4.97;0.20;;;16.20;99.90;;;;;;5077788;28;21472;-54
2022/07/06 06:56:24;;;;;;;6.85;0.93;;;16.20;99.90;;;;;;5079821;28;20032;-52
2022/07/06 06:58:49;;;;;;;1.83;0.20;;;16.30;99.90;;;;;;5091238;28;20063;-51
2022/07/06 07:01:15;;;;;;;1.48;0.10;;;16.30;99.90;;;;;;5085565;28;20524;-50
2022/07/06 07:03:40;;;;;;;2.03;0.20;;;16.30;99.90;;;;;;5070173;28;20101;-49
2022/07/06 07:06:06;;;;;;;3.67;0.30;;;16.40;99.90;;;;;;5075286;28;20421;-51
2022/07/06 07:08:32;;;;;;;3.40;0.25;;;16.40;99.90;;;;;;5082041;28;20041;-49
2022/07/06 07:10:58;;;;;;;2.13;0.30;;;16.50;99.90;;;;;;5081925;28;20032;-49
2022/07/06 07:13:23;;;;;;;3.88;0.25;;;16.50;99.90;;;;;;5083411;28;20082;-52
2022/07/06 07:15:49;;;;;;;2.70;0.20;;;16.50;99.90;;;;;;5070940;28;20107;-50
2022/07/06 07:18:14;;;;;;;8.90;1.92;;;16.50;99.90;;;;;;5090967;28;20444;-49
2022/07/06 07:20:40;;;;;;;2.72;0.30;;;16.50;99.90;;;;;;5087386;28;20032;-50
2022/07/06 07:23:05;;;;;;;6.05;0.30;;;16.60;99.90;;;;;;5080136;28;20047;-46
2022/07/06 07:25:31;;;;;;;3.92;0.68;;;16.60;99.90;;;;;;5089873;28;20048;-49
2022/07/06 07:27:57;;;;;;;3.78;0.13;;;16.70;99.90;;;;;;5073259;28;20529;-50
2022/07/06 07:30:22;;;;;;;1.75;0.20;;;16.70;99.90;;;;;;5071868;28;20033;-49
2022/07/06 07:32:48;;;;;;;6.32;0.55;;;16.70;99.90;;;;;;5083921;28;20040;-50
2022/07/06 07:35:14;;;;;;;2.83;0.20;;;16.70;99.90;;;;;;5077243;28;20119;-52
2022/07/06 07:37:39;;;;;;;1.50;0.10;;;16.80;99.90;;;;;;5087272;28;20028;-51
2022/07/06 07:40:05;;;;;;;3.25;0.20;;;16.70;99.90;;;;;;5089583;28;20085;-49
2022/07/06 07:42:32;;;;;;;1.95;0.10;;;16.70;99.90;;;;;;5088351;28;20043;-47
2022/07/06 07:44:58;;;;;;;3.03;0.45;;;16.80;99.90;;;;;;5089784;28;20051;-53
2022/07/06 07:47:24;;;;;;;5.22;0.30;;;16.80;99.90;;;;;;5088630;28;20036;-52
2022/07/06 07:49:49;;;;;;;5.97;0.20;;;16.90;99.90;;;;;;5090244;28;20413;-51
2022/07/06 07:52:15;;;;;;;0.95;0.10;;;16.90;99.90;;;;;;5082430;28;20119;-48
2022/07/06 07:54:41;;;;;;;4.93;0.20;;;17.00;99.90;;;;;;5063378;28;20062;-50
2022/07/06 07:57:06;;;;;;;1.13;0.10;;;17.00;99.90;;;;;;5070307;28;20037;-51
2022/07/06 07:59:32;;;;;;;1.83;0.20;;;17.10;99.90;;;;;;5084077;28;20036;-52
2022/07/06 08:01:57;;;;;;;5.63;0.40;;;17.10;99.90;;;;;;5080922;28;20032;-48
2022/07/06 08:04:23;;;;;;;2.25;0.20;;;17.20;99.90;;;;;;5080520;28;20513;-51
2022/07/06 08:06:48;;;;;;;2.50;0.30;;;17.20;99.90;;;;;;5080473;28;20032;-48
2022/07/06 08:09:16;;;;;;;2.58;0.10;;;17.10;99.90;;;;;;5088742;28;20230;-49
2022/07/06 08:11:42;;;;;;;3.20;0.20;;;17.10;99.90;;;;;;5070319;28;20072;-52
2022/07/06 08:14:07;;;;;;;6.22;0.25;;;17.10;99.90;;;;;;5072938;28;20492;-51
2022/07/06 08:16:34;;;;;;;3.60;0.10;;;17.10;99.90;;;;;;5077887;28;20050;-51
2022/07/06 08:19:00;;;;;;;2.30;0.30;;;17.20;99.90;;;;;;5074642;28;20131;-51
2022/07/06 08:21:25;;;;;;;1.65;0.22;;;17.20;99.90;;;;;;5073750;28;20086;-51
2022/07/06 08:23:51;;;;;;;2.47;0.17;;;17.20;99.90;;;;;;5081690;28;20039;-50
2022/07/06 08:26:17;;;;;;;3.13;0.43;;;17.20;99.90;;;;;;5077648;28;20049;-50
2022/07/06 08:28:42;;;;;;;2.72;0.20;;;17.30;99.90;;;;;;5076209;28;20075;-52
2022/07/06 08:31:08;;;;;;;0.98;0.30;;;17.40;99.90;;;;;;5087432;28;20046;-54
2022/07/06 08:33:34;;;;;;;3.25;0.63;;;17.40;99.90;;;;;;5069816;28;20076;-51
2022/07/06 08:35:59;;;;;;;1.00;0.10;;;17.50;99.90;;;;;;5068367;28;20082;-49
2022/07/06 08:38:25;;;;;;;0.63;0.15;;;17.60;99.90;;;;;;5068144;28;20041;-53
2022/07/06 08:40:51;;;;;;;2.40;0.20;;;17.60;99.90;;;;;;5075942;28;20040;-50
2022/07/06 08:43:17;;;;;;;1.77;0.17;;;17.60;99.90;;;;;;5070584;28;20032;-52
2022/07/06 08:45:44;;;;;;;0.55;0.10;;;17.60;99.90;;;;;;5067920;28;20554;-50
2022/07/06 08:48:11;;;;;;;4.22;0.20;;;17.60;99.90;;;;;;5078804;28;20044;-49
2022/07/06 08:50:37;;;;;;;0.77;0.10;;;17.60;99.90;;;;;;5069300;28;20047;-46
2022/07/06 08:53:04;;;;;;;3.45;0.35;;;17.60;99.90;;;;;;5080709;28;20400;-53
2022/07/06 08:55:29;;;;;;;3.40;0.10;;;17.70;99.90;;;;;;5073810;28;20123;-55
2022/07/06 08:57:56;;;;;;;5.15;0.20;;;17.70;99.90;;;;;;5077346;28;20167;-46
2022/07/06 09:00:24;;;;;;;1.20;0.20;;;17.80;99.90;;;;;;5062578;28;20024;-55
2022/07/06 09:02:51;;;;;;;3.28;0.15;;;17.80;99.90;;;;;;5071241;28;20485;-54
2022/07/06 09:05:17;;;;;;;2.17;0.20;;;17.80;99.90;;;;;;5067497;28;20412;-53
2022/07/06 09:07:48;;;;;;;7.22;0.15;;;17.80;99.90;;;;;;5072536;28;20124;-51
2022/07/06 09:10:15;;;;;;;1.63;0.03;;;17.80;99.90;;;;;;5082889;28;20101;-48
2022/07/06 09:12:41;;;;;;;2.05;0.13;;;17.80;99.90;;;;;;5080544;28;20041;-51
2022/07/06 09:15:06;;;;;;;1.65;0.10;;;17.80;99.90;;;;;;5084160;28;20039;-51
2022/07/06 09:17:32;;;;;;;1.67;0.47;;;17.90;99.90;;;;;;5086544;28;20258;-51
2022/07/06 09:19:58;;;;;;;3.15;0.63;;;18.00;99.90;;;;;;5077170;28;20036;-50
2022/07/06 09:22:31;;;;;;;2.25;0.10;;;18.00;99.70;;;;;;5083996;28;20119;-47
2022/07/06 09:25:06;;;;;;;3.35;0.20;;;18.10;99.80;;;;;;5080807;28;20036;-52
2022/07/06 09:27:36;;;;;;;4.57;0.10;;;18.20;99.90;;;;;;5077215;28;20089;-49
2022/07/06 09:30:03;;;;;;;0.60;0.05;;;18.30;99.60;;;;;;5082640;28;20036;-47
2022/07/06 09:32:28;;;;;;;2.13;0.28;;;18.40;99.70;;;;;;5083755;28;20044;-50
2022/07/06 09:34:55;;;;;;;2.35;0.20;;;18.50;99.90;;;;;;5077367;28;20048;-47
2022/07/06 09:37:21;;;;;;;5.45;0.35;;;18.60;99.20;;;;;;5080792;28;20577;-48
2022/07/06 09:39:47;;;;;;;6.15;0.13;;;18.70;99.20;;;;;;5079225;28;20035;-54
2022/07/06 09:42:12;;;;;;;3.72;0.20;;;18.80;99.00;;;;;;5078014;28;20406;-49
2022/07/06 09:44:40;;;;;;;0.60;0.13;;;18.80;99.60;;;;;;5080511;28;20043;-49
2022/07/06 09:47:11;;;;;;;5.43;0.80;;;18.90;99.30;;;;;;5082683;28;20028;-53
2022/07/06 09:49:38;;;;;;;0.82;0.10;;;19.00;99.10;;;;;;5080687;28;20035;-48
2022/07/06 09:52:06;;;;;;;3.17;0.10;;;19.10;98.90;;;;;;5079536;28;20404;-55
2022/07/06 09:54:34;;;;;;;5.55;0.52;;;19.20;98.80;;;;;;5080703;28;20063;-51
2022/07/06 09:57:00;;;;;;;1.70;0.30;;;19.20;98.40;;;;;;5080071;28;20028;-48
2022/07/06 09:59:31;;;;;;;1.48;0.25;;;19.30;98.50;;;;;;5079504;28;20032;-51
2022/07/06 10:02:02;;;;;;;1.38;0.10;;;19.30;98.60;;;;;;5077741;28;20157;-51
2022/07/06 10:04:29;;;;;;;2.63;0.20;;;19.40;98.60;;;;;;5078609;28;20527;-52
2022/07/06 10:06:55;;;;;;;4.32;0.98;;;19.50;98.60;;;;;;5080241;28;20798;-52
2022/07/06 10:09:23;;;;;;;1.38;0.17;;;19.40;97.40;;;;;;5070797;28;20052;-48
2022/07/06 10:11:54;;;;;;;1.33;0.10;;;19.30;97.60;;;;;;5073620;28;20044;-54
2022/07/06 10:14:45;;;;;;;1.75;0.10;;;19.20;97.40;;;;;;5085656;28;20119;-47
2022/07/06 10:17:13;;;;;;;0.98;0.10;;;19.10;98.00;;;;;;5088275;28;20056;-50
2022/07/06 10:19:40;;;;;;;1.38;0.17;;;19.10;97.70;;;;;;5085478;28;20049;-49
2022/07/06 10:22:06;;;;;;;1.42;0.10;;;19.10;97.80;;;;;;5071223;28;20114;-53
2022/07/06 10:24:39;;;;;;;2.90;0.20;;;19.10;97.40;;;;;;5071935;28;20563;-52
2022/07/06 10:27:05;;;;;;;1.70;0.00;;;19.20;97.00;;;;;;5071657;28;20090;-53
2022/07/06 10:29:31;;;;;;;;;;;19.20;96.90;;;;;;5076651;28;20070;-49
2022/07/06 10:31:57;;;;;;;1.60;0.10;;;19.20;96.50;;;;;;5091531;28;20460;-48
2022/07/06 10:34:23;;;;;;;0.60;0.17;;;19.20;95.90;;;;;;5088872;28;20119;-53
2022/07/06 10:36:51;;;;;;;1.73;0.10;;;19.20;95.80;;;;;;5091138;28;20040;-52
2022/07/06 10:42:42;;;;;;;5.07;0.13;;;19.20;95.50;;;;;;5070445;28;20111;-47
2022/07/06 10:45:08;;;;;;;1.33;0.10;;;19.30;95.50;;;;;;5083428;28;20501;-52
2022/07/06 10:47:35;;;;;;;9.13;0.17;;;19.30;95.90;;;;;;5071097;28;20040;-51
2022/07/06 10:50:01;;;;;;;0.85;0.00;;;19.30;97.00;;;;;;5085606;28;20040;-51
2022/07/06 10:52:49;;;;;;;0.63;0.10;;;19.30;96.30;;;;;;5070827;28;20302;-53
2022/07/06 10:55:33;;;;;;;1.95;0.10;;;19.50;96.10;;;;;;5077948;28;20040;-51
2022/07/06 10:58:00;;;;;;;0.22;0.08;;;19.50;95.40;;;;;;5090053;28;20032;-47
2022/07/06 11:00:25;;;;;;;1.73;0.10;;;19.60;95.50;;;;;;5079703;28;20075;-51
2022/07/06 11:02:51;;;;;;;1.20;0.10;;;19.60;95.50;;;;;;5087122;28;20032;-54
2022/07/06 11:05:42;;;;;;;0.55;0.05;;;19.80;95.20;;;;;;5077929;28;20043;-47
2022/07/06 11:08:10;;;;;;;0.63;0.20;;;19.80;94.30;;;;;;5091043;28;20047;-50
2022/07/06 11:10:49;;;;;;;5.25;0.47;;;19.80;94.70;;;;;;5080432;28;20111;-51
2022/07/06 11:13:27;;;;;;;3.42;0.20;;;19.80;94.50;;;;;;5090279;28;20127;-52
2022/07/06 11:16:01;;;;;;;1.63;0.10;;;19.90;94.20;;;;;;5079046;28;20051;-51
2022/07/06 11:18:27;;;;;;;2.28;0.20;;;19.90;94.70;;;;;;5070744;28;20102;-47
2022/07/06 11:21:35;;;;;;;0.43;0.00;;;20.00;94.40;;;;;;5079150;28;20044;-51
2022/07/06 11:24:00;;;;;;;1.05;0.10;;;20.10;94.50;;;;;;5062545;28;20090;-50
2022/07/06 11:26:27;;;;;;;2.03;0.20;;;20.20;95.10;;;;;;5084754;28;20044;-53
2022/07/06 11:28:53;;;;;;;1.40;0.30;;;20.30;94.80;;;;;;5088467;28;20046;-55
2022/07/06 11:31:19;;;;;;;1.77;0.40;;;20.40;95.20;;;;;;5076964;28;20040;-48
2022/07/06 11:33:46;;;;;;;0.90;0.30;;;20.40;94.00;;;;;;5070142;28;20044;-50
2022/07/06 11:36:19;;;;;;;5.22;0.20;;;20.40;94.50;;;;;;5090473;28;20192;-50
2022/07/06 11:38:46;;;;;;;0.63;0.10;;;20.50;93.90;;;;;;5091053;28;20032;-53
2022/07/06 11:41:14;;;;;;;1.08;0.10;;;20.50;94.50;;;;;;5087164;28;20043;-49
2022/07/06 11:43:43;;;;;;;1.67;0.10;;;20.50;94.00;;;;;;5090000;28;20040;-52
2022/07/06 11:46:23;;;;;;;1.60;0.10;;;20.60;93.90;;;;;;5071070;28;20477;-50
2022/07/06 11:48:51;;;;;;;2.30;0.20;;;20.50;93.90;;;;;;5070230;28;20477;-50
2022/07/06 11:51:17;;;;;;;1.27;0.10;;;20.50;94.30;;;;;;5070945;28;20036;-48
2022/07/06 11:53:47;;;;;;;2.30;0.10;;;20.50;94.60;;;;;;5068844;28;20041;-48
2022/07/06 11:56:15;;;;;;;1.10;0.15;;;20.60;94.40;;;;;;5088517;28;20036;-51
2022/07/06 11:58:43;;;;;;;2.55;0.10;;;20.70;94.10;;;;;;5075197;28;20078;-47
2022/07/06 12:01:10;;;;;;;0.95;0.10;;;20.70;93.50;;;;;;5071588;28;20405;-47
2022/07/06 12:03:36;;;;;;;0.82;0.20;;;20.80;94.40;;;;;;5078336;28;20079;-51
2022/07/06 12:06:05;;;;;;;;;;;20.70;93.20;;;;;;5069323;28;20060;-53
2022/07/06 12:08:33;;;;;;;2.33;0.00;;;20.60;94.10;;;;;;5078989;28;19942;-52
2022/07/06 12:10:59;;;;;;;0.20;0.00;;;20.50;93.30;;;;;;5079471;28;20114;-52
2022/07/06 12:13:25;;;;;;;2.50;0.20;;;20.40;93.00;;;;;;5075208;28;20046;-48
2022/07/06 12:15:51;;;;;;;1.67;0.10;;;20.30;94.40;;;;;;5077400;28;20037;-47
2022/07/06 12:18:16;;;;;;;;;;;20.30;94.10;;;;;;5077216;28;20098;-50
2022/07/06 12:20:43;;;;;;;3.40;0.15;;;20.40;94.10;;;;;;5077819;28;20022;-50
2022/07/06 12:23:08;;;;;;;9.25;0.40;;;20.50;94.60;;;;;;5078568;28;20040;-50
2022/07/06 12:25:35;;;;;;;1.45;0.10;;;20.50;93.90;;;;;;5078037;28;20062;-52
2022/07/06 12:28:01;;;;;;;3.08;0.43;;;20.50;93.40;;;;;;5078019;28;20040;-49
2022/07/06 12:30:27;;;;;;;2.45;0.20;;;20.40;93.20;;;;;;5077565;28;20028;-55
2022/07/06 12:33:11;;;;;;;;;;;20.30;93.60;;;;;;5078875;28;20040;-51
2022/07/06 12:35:37;;;;;;;0.82;0.10;;;20.20;93.70;;;;;;5077768;28;19923;-47
2022/07/06 12:38:02;;;;;;;1.40;0.20;;;20.10;94.70;;;;;;5080249;28;20040;-53
2022/07/06 12:40:28;;;;;;;;;;;20.10;94.80;;;;;;5077766;28;20032;-51
2022/07/06 12:42:54;;;;;;;5.05;0.10;;;20.00;94.30;;;;;;5079306;28;20201;-48
2022/07/06 12:45:25;;;;;;;2.05;0.08;;;20.10;93.50;;;;;;5085320;28;20081;-51
2022/07/06 12:48:06;;;;;;;0.68;0.10;;;20.00;93.50;;;;;;5078439;28;20118;-48
2022/07/06 12:50:36;;;;;;;3.33;0.20;;;19.90;93.90;;;;;;5078814;28;20048;-47
2022/07/06 12:53:03;;;;;;;4.35;0.10;;;19.90;94.20;;;;;;5078908;28;20455;-50
2022/07/06 12:55:30;;;;;;;3.83;0.22;;;19.90;94.40;;;;;;5085377;28;20028;-50